createdAt,value
2023-01-17T00:00:35.062Z,93262.09
2023-01-17T00:03:02.005Z,93292.56
2023-01-17T00:05:47.546Z,93271.19
2023-01-17T00:08:32.861Z,93227.41
2023-01-17T00:10:59.761Z,93278.47
2023-01-17T00:13:27.250Z,93274.81
2023-01-17T00:15:53.940Z,93275.16
2023-01-17T00:18:20.707Z,93296.50
2023-01-17T00:21:06.058Z,93275.78
2023-01-17T00:24:08.082Z,93284.84
2023-01-17T00:26:34.816Z,93291.72
2023-01-17T00:29:01.860Z,93291.81
2023-01-17T00:31:28.505Z,93306.94
2023-01-17T00:33:55.334Z,93291.81
2023-01-17T00:36:21.994Z,93289.56
2023-01-17T00:38:48.633Z,93288.72
2023-01-17T00:41:15.654Z,93328.72
2023-01-17T00:44:01.099Z,93313.84
2023-01-17T00:46:46.450Z,93323.75
2023-01-17T00:49:32.131Z,93332.25
2023-01-17T00:52:17.420Z,93320.88
2023-01-17T00:55:02.779Z,93330.09
2023-01-17T00:57:48.371Z,93308.47
2023-01-17T01:00:34.249Z,93339.03
2023-01-17T01:03:19.758Z,93333.16
2023-01-17T01:06:05.098Z,93322.13
2023-01-17T01:08:50.500Z,93338.38
2023-01-17T01:11:38.467Z,93350.41
2023-01-17T01:14:25.771Z,93344.81
2023-01-17T01:17:11.213Z,93356.84
2023-01-17T01:19:56.675Z,93350.22
2023-01-17T01:22:41.996Z,93339.25
2023-01-17T01:25:27.354Z,93360.81
2023-01-17T01:28:21.657Z,93335.63
2023-01-17T01:31:07.140Z,93357.00
2023-01-17T01:33:33.827Z,93356.94
2023-01-17T01:36:00.487Z,93331.09
2023-01-17T01:38:27.242Z,93356.16
2023-01-17T01:40:56.671Z,93352.66
2023-01-17T01:43:52.579Z,93362.56
2023-01-17T01:46:31.277Z,93362.50
2023-01-17T01:49:05.159Z,93365.22
2023-01-17T01:51:51.228Z,93355.75
2023-01-17T01:54:22.493Z,93368.09
2023-01-17T01:56:51.671Z,93354.25
2023-01-17T01:59:21.224Z,93303.91
2023-01-17T02:01:51.738Z,93362.09
2023-01-17T02:04:19.966Z,93380.03
2023-01-17T02:06:51.693Z,93375.78
2023-01-17T02:09:19.547Z,93381.41
2023-01-17T02:11:48.908Z,93369.97
2023-01-17T02:14:17.801Z,93375.03
2023-01-17T02:17:08.904Z,93381.41
2023-01-17T02:20:05.597Z,93379.97
2023-01-17T02:23:00.159Z,93370.72
2023-01-17T02:26:01.545Z,93378.28
2023-01-17T02:28:56.043Z,93367.66
2023-01-17T02:31:55.344Z,93374.25
2023-01-17T02:34:28.703Z,93354.28
2023-01-17T02:37:07.905Z,93379.50
2023-01-17T02:39:49.350Z,93383.63
2023-01-17T02:42:19.692Z,93353.56
2023-01-17T02:44:46.318Z,93367.25
2023-01-17T02:47:24.088Z,93388.47
2023-01-17T02:49:54.448Z,93376.47
2023-01-17T02:52:42.615Z,93376.00
2023-01-17T02:55:30.626Z,93380.19
2023-01-17T02:58:08.586Z,93378.75
2023-01-17T03:01:12.745Z,93375.22
2023-01-17T03:04:04.019Z,93388.66
2023-01-17T03:06:36.701Z,93380.88
2023-01-17T03:09:04.659Z,93360.63
2023-01-17T03:11:31.512Z,93380.00
2023-01-17T03:13:58.188Z,93389.72
2023-01-17T03:16:27.941Z,93385.47
2023-01-17T03:18:55.196Z,93392.53
2023-01-17T03:21:23.512Z,93395.53
2023-01-17T03:23:50.332Z,93343.75
2023-01-17T03:26:17.220Z,93388.94
2023-01-17T03:28:43.890Z,93392.47
2023-01-17T03:31:14.594Z,93400.31
2023-01-17T03:33:41.367Z,93384.47
2023-01-17T03:36:08.292Z,93404.41
2023-01-17T03:38:34.977Z,93396.13
2023-01-17T03:41:01.773Z,93392.53
2023-01-17T03:43:28.569Z,93420.00
2023-01-17T03:46:03.380Z,93380.72
2023-01-17T03:48:30.095Z,93401.13
2023-01-17T03:50:56.775Z,93403.81
2023-01-17T03:53:23.744Z,93384.66
2023-01-17T03:55:50.401Z,93414.03
2023-01-17T03:58:17.224Z,93397.72
2023-01-17T04:00:44.043Z,93374.78
2023-01-17T04:03:10.686Z,93401.19
2023-01-17T04:05:37.419Z,93417.81
2023-01-17T04:08:04.521Z,93382.25
2023-01-17T04:10:31.161Z,93401.59
2023-01-17T04:12:57.831Z,93402.16
2023-01-17T04:15:24.496Z,93401.22
2023-01-17T04:17:51.317Z,93389.88
2023-01-17T04:20:33.385Z,93380.50
2023-01-17T04:23:00.235Z,93407.63
2023-01-17T04:25:27.572Z,93387.75
2023-01-17T04:27:54.525Z,93399.03
2023-01-17T04:30:21.635Z,93411.16
2023-01-17T04:32:48.334Z,93413.97
2023-01-17T04:35:15.215Z,93407.50
2023-01-17T04:37:41.907Z,93406.13
2023-01-17T04:40:09.575Z,93401.84
2023-01-17T04:42:36.329Z,93407.97
2023-01-17T04:45:03.427Z,93389.91
2023-01-17T04:47:30.378Z,93421.28
2023-01-17T04:49:57.021Z,93405.44
2023-01-17T04:52:23.637Z,93404.00
2023-01-17T04:54:50.434Z,93398.31
2023-01-17T04:57:18.110Z,93395.88
2023-01-17T04:59:45.537Z,93402.38
2023-01-17T05:02:13.067Z,93399.22
2023-01-17T05:04:40.414Z,93377.28
2023-01-17T05:07:07.316Z,93397.44
2023-01-17T05:09:33.991Z,93405.38
2023-01-17T05:12:00.674Z,93394.16
2023-01-17T05:14:27.437Z,93414.03
2023-01-17T05:16:54.654Z,93385.47
2023-01-17T05:19:21.925Z,93407.88
2023-01-17T05:21:48.589Z,93407.09
2023-01-17T05:24:15.420Z,93422.75
2023-01-17T05:26:43.232Z,93413.13
2023-01-17T05:29:10.644Z,93408.16
2023-01-17T05:31:37.843Z,93421.09
2023-01-17T05:34:04.754Z,93439.94
2023-01-17T05:36:31.415Z,93436.25
2023-01-17T05:38:58.145Z,93440.69
2023-01-17T05:41:24.766Z,93434.22
2023-01-17T05:43:51.434Z,93431.59
2023-01-17T05:46:18.385Z,93425.72
2023-01-17T05:48:45.077Z,93451.84
2023-01-17T05:51:11.775Z,93457.03
2023-01-17T05:53:43.586Z,93439.44
2023-01-17T05:56:10.315Z,93455.47
2023-01-17T05:58:37.048Z,93478.97
2023-01-17T06:01:03.712Z,93449.28
2023-01-17T06:03:30.350Z,93416.22
2023-01-17T06:05:57.037Z,93457.81
2023-01-17T06:08:23.739Z,93473.47
2023-01-17T06:10:50.373Z,93442.22
2023-01-17T06:13:20.970Z,93459.25
2023-01-17T06:15:48.178Z,93459.66
2023-01-17T06:18:17.338Z,93435.00
2023-01-17T06:20:44.674Z,93465.00
2023-01-17T06:23:13.392Z,93441.56
2023-01-17T06:25:45.465Z,93430.16
2023-01-17T06:28:14.753Z,93439.94
2023-01-17T06:30:42.496Z,93439.25
2023-01-17T06:33:09.578Z,93426.03
2023-01-17T06:35:38.315Z,93401.19
2023-01-17T06:38:05.010Z,93419.59
2023-01-17T06:40:31.697Z,93425.25
2023-01-17T06:43:02.884Z,93437.50
2023-01-17T06:45:31.613Z,93430.28
2023-01-17T06:47:59.359Z,93403.75
2023-01-17T06:50:26.298Z,93429.22
2023-01-17T06:53:00.379Z,93426.47
2023-01-17T06:55:28.939Z,93439.19
2023-01-17T06:57:57.034Z,93414.84
2023-01-17T07:00:24.220Z,93426.34
2023-01-17T07:02:51.804Z,93420.72
2023-01-17T07:05:19.632Z,93430.75
2023-01-17T07:07:47.018Z,93423.59
2023-01-17T07:10:15.669Z,93436.19
2023-01-17T07:12:42.418Z,93418.28
2023-01-17T07:15:09.831Z,93437.44
2023-01-17T07:17:36.664Z,93423.88
2023-01-17T07:20:03.632Z,93414.63
2023-01-17T07:22:30.387Z,93409.78
2023-01-17T07:24:58.856Z,93430.16
2023-01-17T07:27:27.913Z,93409.47
2023-01-17T07:29:54.690Z,93423.03
2023-01-17T07:32:21.581Z,93416.47
2023-01-17T07:34:48.295Z,93426.34
2023-01-17T07:37:15.418Z,93427.72
2023-01-17T07:39:42.583Z,93417.72
2023-01-17T07:42:09.384Z,93422.09
2023-01-17T07:44:36.165Z,93420.00
2023-01-17T07:47:04.352Z,93430.50
2023-01-17T07:49:31.054Z,93419.66
2023-01-17T07:51:57.697Z,93433.69
2023-01-17T07:54:24.373Z,93421.66
2023-01-17T07:56:51.049Z,93426.69
2023-01-17T07:59:18.241Z,93420.97
2023-01-17T08:01:45.043Z,93405.19
2023-01-17T08:04:11.900Z,93406.06
2023-01-17T08:06:42.157Z,93387.59
2023-01-17T08:09:08.780Z,93390.59
2023-01-17T08:11:35.398Z,93386.28
2023-01-17T08:14:02.048Z,93396.38
2023-01-17T08:16:29.860Z,93396.44
2023-01-17T08:18:57.038Z,93390.66
2023-01-17T08:21:24.134Z,93380.03
2023-01-17T08:23:52.707Z,93388.81
2023-01-17T08:26:22.522Z,93384.69
2023-01-17T08:29:03.246Z,93382.59
2023-01-17T08:31:32.846Z,93382.53
2023-01-17T08:33:59.549Z,93384.09
2023-01-17T08:36:27.765Z,93387.78
2023-01-17T08:38:55.486Z,93385.75
2023-01-17T08:41:23.831Z,93383.09
2023-01-17T08:43:52.070Z,93373.34
2023-01-17T08:46:19.484Z,93376.88
2023-01-17T08:48:46.630Z,93365.00
2023-01-17T08:51:13.536Z,93353.69
2023-01-17T08:53:43.743Z,93354.78
2023-01-17T08:56:10.493Z,93370.47
2023-01-17T08:58:37.140Z,93360.53
2023-01-17T09:01:06.597Z,93371.34
2023-01-17T09:03:34.843Z,93366.41
2023-01-17T09:06:09.720Z,93375.78
2023-01-17T09:08:37.484Z,93362.28
2023-01-17T09:11:12.123Z,93371.81
2023-01-17T09:13:39.347Z,93378.19
2023-01-17T09:16:06.550Z,93375.47
2023-01-17T09:18:34.415Z,93379.19
2023-01-17T09:21:16.712Z,93392.06
2023-01-17T09:23:43.943Z,93379.66
2023-01-17T09:26:36.992Z,93383.38
2023-01-17T09:29:03.871Z,93380.66
2023-01-17T09:31:30.661Z,93372.38
2023-01-17T09:33:58.824Z,93372.41
2023-01-17T09:36:31.862Z,93373.91
2023-01-17T09:38:59.343Z,93372.00
2023-01-17T09:41:31.221Z,93365.75
2023-01-17T09:44:06.546Z,93363.03
2023-01-17T09:46:39.932Z,93360.22
2023-01-17T09:49:21.812Z,93356.06
2023-01-17T09:51:48.676Z,93341.41
2023-01-17T09:54:22.950Z,93331.53
2023-01-17T09:57:01.957Z,93325.31
2023-01-17T09:59:40.250Z,93329.84
2023-01-17T10:02:39.116Z,93319.28
2023-01-17T10:05:20.754Z,93301.81
2023-01-17T10:08:25.825Z,93287.03
2023-01-17T10:11:13.914Z,93262.19
2023-01-17T10:13:56.175Z,93266.44
2023-01-17T10:16:53.238Z,93272.31
2023-01-17T10:19:47.276Z,93278.06
2023-01-17T10:22:25.803Z,93273.16
2023-01-17T10:25:01.443Z,93262.56
2023-01-17T10:27:34.015Z,93256.19
2023-01-17T10:30:22.946Z,93266.06
2023-01-17T10:32:50.641Z,93255.38
2023-01-17T10:35:21.934Z,93265.38
2023-01-17T10:37:52.315Z,93264.72
2023-01-17T10:40:31.660Z,93261.16
2023-01-17T10:43:10.023Z,93261.22
2023-01-17T10:45:41.537Z,93271.13
2023-01-17T10:48:23.243Z,93255.53
2023-01-17T10:51:02.094Z,93252.91
2023-01-17T10:53:50.854Z,93257.22
2023-01-17T10:56:23.572Z,93246.56
2023-01-17T10:58:57.850Z,93243.63
2023-01-17T11:01:26.420Z,93244.47
2023-01-17T11:03:55.399Z,93262.81
2023-01-17T11:06:24.862Z,93228.97
2023-01-17T11:08:59.966Z,93226.09
2023-01-17T11:11:32.308Z,93213.41
2023-01-17T11:14:04.720Z,93203.50
2023-01-17T11:16:32.665Z,93199.28
2023-01-17T11:19:27.950Z,93198.66
2023-01-17T11:22:01.797Z,93194.50
2023-01-17T11:24:36.478Z,93190.97
2023-01-17T11:27:06.171Z,93188.06
2023-01-17T11:29:39.040Z,93186.69
2023-01-17T11:32:31.007Z,93184.56
2023-01-17T11:35:12.657Z,93181.75
2023-01-17T11:37:41.584Z,93174.69
2023-01-17T11:40:30.144Z,93178.25
2023-01-17T11:43:03.554Z,93178.22
2023-01-17T11:45:32.791Z,93178.91
2023-01-17T11:48:08.843Z,93180.34
2023-01-17T11:50:57.898Z,93174.00
2023-01-17T11:53:30.183Z,93166.22
2023-01-17T11:56:23.158Z,93159.13
2023-01-17T11:58:51.208Z,93157.66
2023-01-17T12:01:31.982Z,93159.78
2023-01-17T12:04:40.145Z,93147.03
2023-01-17T12:07:45.039Z,93139.28
2023-01-17T12:10:18.748Z,93137.13
2023-01-17T12:13:33.621Z,93130.13
2023-01-17T12:16:31.859Z,93131.50
2023-01-17T12:19:07.994Z,93120.91
2023-01-17T12:21:55.000Z,93114.50
2023-01-17T12:24:46.360Z,93106.72
2023-01-17T12:27:22.894Z,93098.16
2023-01-17T12:29:58.970Z,93089.75
2023-01-17T12:32:31.270Z,93086.22
2023-01-17T12:35:24.397Z,93076.88
2023-01-17T12:38:04.711Z,93081.19
2023-01-17T12:40:37.873Z,93069.22
2023-01-17T12:43:24.328Z,93062.84
2023-01-17T12:45:52.671Z,93047.16
2023-01-17T12:48:21.418Z,93047.28
2023-01-17T12:51:05.438Z,93047.97
2023-01-17T12:53:51.039Z,93046.44
2023-01-17T12:56:41.906Z,93037.34
2023-01-17T12:59:35.263Z,93028.19
2023-01-17T13:02:12.303Z,93031.75
2023-01-17T13:04:57.047Z,93023.97
2023-01-17T13:07:37.883Z,93023.31
2023-01-17T13:10:21.074Z,93014.16
2023-01-17T13:12:50.215Z,93017.00
2023-01-17T13:15:24.835Z,93016.31
2023-01-17T13:18:04.581Z,93000.03
2023-01-17T13:20:40.624Z,93008.56
2023-01-17T13:23:33.893Z,92999.97
2023-01-17T13:26:02.125Z,93007.78
2023-01-17T13:28:44.019Z,93007.78
2023-01-17T13:31:25.205Z,93008.34
2023-01-17T13:34:04.959Z,93004.25
2023-01-17T13:36:54.612Z,93000.72
2023-01-17T13:39:33.519Z,92992.91
2023-01-17T13:42:17.938Z,92983.00
2023-01-17T13:44:46.367Z,92984.97
2023-01-17T13:47:19.250Z,92999.81
2023-01-17T13:49:49.499Z,92992.78
2023-01-17T13:52:19.244Z,92989.25
2023-01-17T13:54:57.970Z,92981.41
2023-01-17T13:57:27.331Z,92984.31
2023-01-17T13:59:57.906Z,92984.28
2023-01-17T14:02:33.828Z,92985.75
2023-01-17T14:05:09.253Z,92975.22
2023-01-17T14:07:43.921Z,92961.69
2023-01-17T14:10:40.908Z,92964.72
2023-01-17T14:13:34.970Z,92963.31
2023-01-17T14:16:05.437Z,92953.44
2023-01-17T14:18:33.729Z,92949.00
2023-01-17T14:21:25.341Z,92951.25
2023-01-17T14:23:56.119Z,92947.72
2023-01-17T14:26:31.067Z,92934.88
2023-01-17T14:28:59.895Z,92943.47
2023-01-17T14:31:28.118Z,92932.09
2023-01-17T14:33:54.779Z,92933.44
2023-01-17T14:36:32.441Z,92940.53
2023-01-17T14:38:59.144Z,92939.75
2023-01-17T14:41:28.868Z,92914.91
2023-01-17T14:43:56.690Z,92916.44
2023-01-17T14:46:34.261Z,92901.66
2023-01-17T14:49:24.125Z,92888.88
2023-01-17T14:52:02.153Z,92891.63
2023-01-17T14:54:29.594Z,92871.75
2023-01-17T14:57:22.739Z,92878.19
2023-01-17T14:59:49.422Z,92868.19
2023-01-17T15:02:18.574Z,92875.28
2023-01-17T15:04:53.397Z,92882.28
2023-01-17T15:07:20.455Z,92878.63
2023-01-17T15:09:47.247Z,92880.09
2023-01-17T15:12:14.659Z,92886.47
2023-01-17T15:14:44.752Z,92884.31
2023-01-17T15:17:18.700Z,92869.44
2023-01-17T15:19:50.146Z,92877.28
2023-01-17T15:22:18.781Z,92880.13
2023-01-17T15:24:48.007Z,92880.13
2023-01-17T15:27:16.961Z,92864.47
2023-01-17T15:29:45.611Z,92868.13
2023-01-17T15:32:32.642Z,92870.22
2023-01-17T15:35:02.539Z,92859.59
2023-01-17T15:37:36.260Z,92867.38
2023-01-17T15:40:17.217Z,92861.03
2023-01-17T15:42:46.860Z,92857.47
2023-01-17T15:45:19.927Z,92854.63
2023-01-17T15:47:46.953Z,92847.47
2023-01-17T15:50:27.834Z,92858.72
2023-01-17T15:53:02.489Z,92847.31
2023-01-17T15:55:34.920Z,92838.81
2023-01-17T15:58:02.438Z,92825.38
2023-01-17T16:00:39.179Z,92815.34
2023-01-17T16:03:26.753Z,92818.16
2023-01-17T16:05:56.875Z,92827.91
2023-01-17T16:08:23.468Z,92822.25
2023-01-17T16:10:54.973Z,92819.31
2023-01-17T16:13:21.996Z,92811.38
2023-01-17T16:15:48.937Z,92817.06
2023-01-17T16:18:24.121Z,92827.59
2023-01-17T16:21:00.244Z,92820.47
2023-01-17T16:23:28.478Z,92824.69
2023-01-17T16:25:55.197Z,92815.34
2023-01-17T16:28:23.042Z,92825.34
2023-01-17T16:30:49.759Z,92827.47
2023-01-17T16:33:16.509Z,92825.25
2023-01-17T16:35:44.232Z,92830.25
2023-01-17T16:38:14.136Z,92825.28
2023-01-17T16:40:45.261Z,92834.47
2023-01-17T16:43:14.413Z,92837.94
2023-01-17T16:45:53.144Z,92832.28
2023-01-17T16:48:20.709Z,92842.88
2023-01-17T16:50:50.852Z,92832.91
2023-01-17T16:53:24.337Z,92831.50
2023-01-17T16:55:54.370Z,92847.78
2023-01-17T16:58:21.128Z,92855.56
2023-01-17T17:00:47.913Z,92855.56
2023-01-17T17:03:18.842Z,92851.31
2023-01-17T17:05:54.099Z,92854.13
2023-01-17T17:08:20.711Z,92849.84
2023-01-17T17:10:47.389Z,92856.69
2023-01-17T17:13:14.057Z,92859.72
2023-01-17T17:15:43.970Z,92869.66
2023-01-17T17:18:15.963Z,92861.91
2023-01-17T17:20:43.236Z,92878.91
2023-01-17T17:23:10.399Z,92876.81
2023-01-17T17:25:38.036Z,92881.63
2023-01-17T17:28:06.276Z,92896.63
2023-01-17T17:30:33.516Z,92890.22
2023-01-17T17:33:00.303Z,92890.94
2023-01-17T17:35:27.008Z,92885.47
2023-01-17T17:37:54.406Z,92896.72
2023-01-17T17:40:21.337Z,92905.78
2023-01-17T17:42:47.961Z,92912.22
2023-01-17T17:45:14.635Z,92920.78
2023-01-17T17:47:41.270Z,92924.38
2023-01-17T17:50:08.671Z,92935.72
2023-01-17T17:52:35.296Z,92939.31
2023-01-17T17:55:02.124Z,92939.34
2023-01-17T17:57:28.775Z,92942.13
2023-01-17T17:59:56.808Z,92948.63
2023-01-17T18:02:23.570Z,92941.56
2023-01-17T18:04:50.371Z,92938.91
2023-01-17T18:07:17.059Z,92933.25
2023-01-17T18:09:43.686Z,92917.75
2023-01-17T18:12:10.421Z,92907.19
2023-01-17T18:14:37.192Z,92925.38
2023-01-17T18:17:03.852Z,92922.66
2023-01-17T18:19:30.509Z,92920.50
2023-01-17T18:21:58.191Z,92924.63
2023-01-17T18:24:25.299Z,92916.91
2023-01-17T18:26:56.063Z,92926.06
2023-01-17T18:29:23.978Z,92931.66
2023-01-17T18:31:51.990Z,92925.97
2023-01-17T18:34:23.763Z,92937.19
2023-01-17T18:36:51.241Z,92927.13
2023-01-17T18:39:20.632Z,92933.59
2023-01-17T18:41:48.174Z,92950.47
2023-01-17T18:44:14.936Z,92939.88
2023-01-17T18:46:42.369Z,92934.81
2023-01-17T18:49:14.821Z,92943.91
2023-01-17T18:51:42.872Z,92950.09
2023-01-17T18:54:09.541Z,92952.78
2023-01-17T18:56:36.330Z,92979.00
2023-01-17T18:59:06.221Z,92981.13
2023-01-17T19:01:35.747Z,92966.84
2023-01-17T19:04:05.349Z,92970.53
2023-01-17T19:06:35.322Z,92974.03
2023-01-17T19:09:02.668Z,92974.09
2023-01-17T19:11:29.480Z,92979.69
2023-01-17T19:13:56.528Z,92992.41
2023-01-17T19:16:28.018Z,93005.97
2023-01-17T19:18:56.867Z,93008.72
2023-01-17T19:21:26.214Z,93017.25
2023-01-17T19:23:54.511Z,93011.41
2023-01-17T19:26:23.190Z,93043.25
2023-01-17T19:28:50.952Z,93023.56
2023-01-17T19:31:22.164Z,93043.94
2023-01-17T19:33:51.915Z,93025.13
2023-01-17T19:36:21.992Z,93025.22
2023-01-17T19:39:03.066Z,93023.78
2023-01-17T19:41:31.945Z,93012.44
2023-01-17T19:44:01.268Z,93014.53
2023-01-17T19:46:28.397Z,93025.03
2023-01-17T19:48:56.505Z,93017.09
2023-01-17T19:51:24.956Z,93022.16
2023-01-17T19:53:53.614Z,93014.56
2023-01-17T19:56:22.784Z,93021.81
2023-01-17T19:58:49.778Z,93021.88
2023-01-17T20:01:19.308Z,93024.63
2023-01-17T20:03:46.831Z,93007.63
2023-01-17T20:06:15.736Z,93019.47
2023-01-17T20:08:43.546Z,93034.41
2023-01-17T20:11:15.806Z,93025.84
2023-01-17T20:13:42.689Z,93025.13
2023-01-17T20:16:11.795Z,93023.63
2023-01-17T20:18:38.816Z,93014.47
2023-01-17T20:21:12.322Z,93001.69
2023-01-17T20:23:46.820Z,93008.00
2023-01-17T20:26:25.655Z,93000.94
2023-01-17T20:28:53.434Z,92993.72
2023-01-17T20:31:25.631Z,93004.50
2023-01-17T20:33:54.427Z,93000.25
2023-01-17T20:36:24.591Z,92994.38
2023-01-17T20:38:51.688Z,93017.63
2023-01-17T20:41:20.601Z,93011.41
2023-01-17T20:43:51.594Z,93013.38
2023-01-17T20:46:20.112Z,93021.13
2023-01-17T20:48:49.226Z,93014.72
2023-01-17T20:51:16.658Z,93011.72
2023-01-17T20:53:46.800Z,93025.41
2023-01-17T20:56:15.618Z,93026.13
2023-01-17T20:58:42.735Z,93028.19
2023-01-17T21:01:11.691Z,93023.00
2023-01-17T21:03:39.931Z,93015.25
2023-01-17T21:06:11.552Z,93025.28
2023-01-17T21:08:40.422Z,93018.00
2023-01-17T21:11:09.509Z,93024.25
2023-01-17T21:13:36.438Z,93025.78
2023-01-17T21:16:03.644Z,93026.22
2023-01-17T21:18:34.187Z,93015.41
2023-01-17T21:21:07.388Z,93012.13
2023-01-17T21:23:38.516Z,93020.59
2023-01-17T21:26:05.982Z,93020.00
2023-01-17T21:28:38.145Z,93027.72
2023-01-17T21:31:23.174Z,93025.66
2023-01-17T21:33:55.661Z,93018.53
2023-01-17T21:36:24.786Z,93024.44
2023-01-17T21:38:54.598Z,93029.91
2023-01-17T21:41:25.155Z,93022.88
2023-01-17T21:43:57.132Z,93047.69
2023-01-17T21:46:24.503Z,93042.81
2023-01-17T21:48:51.463Z,93034.31
2023-01-17T21:51:19.766Z,93034.38
2023-01-17T21:53:46.594Z,93032.97
2023-01-17T21:56:32.980Z,93039.41
2023-01-17T21:59:00.087Z,93031.69
2023-01-17T22:01:29.600Z,93034.50
2023-01-17T22:04:03.718Z,93026.56
2023-01-17T22:06:34.595Z,93043.63
2023-01-17T22:09:01.860Z,93035.81
2023-01-17T22:11:30.468Z,93030.06
2023-01-17T22:13:59.201Z,93039.22
2023-01-17T22:16:26.696Z,93032.97
2023-01-17T22:18:53.808Z,93042.69
2023-01-17T22:21:29.522Z,93041.25
2023-01-17T22:23:58.810Z,93050.25
2023-01-17T22:26:28.341Z,93047.91
2023-01-17T22:28:55.738Z,93062.16
2023-01-17T22:31:24.921Z,93052.97
2023-01-17T22:33:54.860Z,93058.94
2023-01-17T22:36:22.102Z,93064.00
2023-01-17T22:38:49.529Z,93064.00
2023-01-17T22:41:20.157Z,93064.75
2023-01-17T22:43:52.089Z,93074.59
2023-01-17T22:46:24.994Z,93070.41
2023-01-17T22:48:53.920Z,93073.22
2023-01-17T22:51:22.271Z,93066.16
2023-01-17T22:53:55.559Z,93053.34
2023-01-17T22:56:26.531Z,93065.25
2023-01-17T22:58:53.660Z,93063.84
2023-01-17T23:01:26.656Z,93065.41
2023-01-17T23:03:57.616Z,93051.97
2023-01-17T23:06:28.066Z,93065.28
2023-01-17T23:08:57.407Z,93056.66
2023-01-17T23:11:41.104Z,93058.00
2023-01-17T23:14:19.232Z,93067.34
2023-01-17T23:17:18.932Z,93062.19
2023-01-17T23:19:54.518Z,93074.25
2023-01-17T23:22:22.740Z,93067.94
2023-01-17T23:24:54.657Z,93061.44
2023-01-17T23:27:54.853Z,93080.53
2023-01-17T23:30:34.520Z,93080.03
2023-01-17T23:33:05.455Z,93085.72
2023-01-17T23:35:38.001Z,93093.47
2023-01-17T23:38:31.321Z,93092.16
2023-01-17T23:41:21.782Z,93094.28
2023-01-17T23:43:55.740Z,93095.78
2023-01-17T23:46:23.128Z,93092.16
2023-01-17T23:48:49.992Z,93085.22
2023-01-17T23:51:17.048Z,93081.69
2023-01-17T23:53:46.268Z,93078.97
2023-01-17T23:56:16.900Z,93083.31
2023-01-17T23:58:43.879Z,93081.38
